Terminal Aerodrome Forecast
Issued by NWS

Home | Current Version | Previous Version | Text Only | Print | Product List | Glossary On
Versions: 1 2 3 4 5 6 7 8 9 10 11 12 13 14 15 16 17
729
FTUS46 KSTO 061131
TAFSAC
TAF
KSAC 061131Z 0612/0712 33005KT P6SM SCT250
      TEMPO 0612/0616 2SM BR
     FM070000 VRB03KT P6SM SKC
      TEMPO 0708/0712 2SM BR=

USA.gov is the U.S. government's official web portal to all federal, state and local government web resources and services.